Time;durP1;ratioP1;P1;durP2;ratioP2;P2;SDS_P1;SDS_P2;PMS_P1;PMS_P2;Temp;Humidity;BMP_temperature;BMP_pressure;BME280_temperature;BME280_humidity;BME280_pressure;Samples;Min_cycle;Max_cycle;Signal;HPM_P1;HPM_P2
2023/10/20 00:00:14;;;;;;;;;;;;;;;;;;112541;211;39581;-45
2023/10/20 00:03:09;;;;;;;;;;;;;;;;;;112564;211;44432;-45
2023/10/20 00:05:47;;;;;;;;;;;;;;;;;;112472;211;43129;-45
2023/10/20 00:08:22;;;;;;;;;;;;;;;;;;112565;211;38485;-46
2023/10/20 00:10:57;;;;;;;;;;;;;;;;;;112544;211;40859;-46
2023/10/20 00:13:29;;;;;;;;;;;;;;;;;;112553;211;42572;-45
2023/10/20 00:16:05;;;;;;;;;;;;;;;;;;112565;211;42930;-46
2023/10/20 00:18:51;;;;;;;;;;;;;;;;;;112580;211;39322;-46
2023/10/20 00:21:25;;;;;;;;;;;;;;;;;;112559;211;39638;-45
2023/10/20 00:23:58;;;;;;;;;;;;;;;;;;112621;211;44066;-46
2023/10/20 00:26:32;;;;;;;;;;;;;;;;;;112495;211;41820;-46
2023/10/20 00:29:07;;;;;;;;;;;;;;;;;;112541;211;39985;-45
2023/10/20 00:31:42;;;;;;;;;;;;;;;;;;112665;211;39835;-45
2023/10/20 00:34:15;;;;;;;;;;;;;;;;;;112578;211;42968;-45
2023/10/20 00:36:48;;;;;;;;;;;;;;;;;;112565;211;41731;-47
2023/10/20 00:39:23;;;;;;;;;;;;;;;;;;112621;211;38826;-46
2023/10/20 00:41:56;;;;;;;;;;;;;;;;;;112634;211;39757;-48
2023/10/20 00:44:29;;;;;;;;;;;;;;;;;;112589;211;43221;-46
2023/10/20 00:47:04;;;;;;;;;;;;;;;;;;112431;211;41845;-46
2023/10/20 00:49:37;;;;;;;;;;;;;;;;;;112587;211;38772;-49
2023/10/20 00:52:09;;;;;;;;;;;;;;;;;;112504;212;40184;-49
2023/10/20 00:54:44;;;;;;;;;;;;;;;;;;112498;212;42940;-49
2023/10/20 00:57:22;;;;;;;;;;;;;;;;;;112428;212;41615;-45
2023/10/20 00:59:58;;;;;;;;;;;;;;;;;;112537;212;38858;-48
2023/10/20 01:02:30;;;;;;;;;;;;;;;;;;112461;212;39570;-47
2023/10/20 01:05:06;;;;;;;;;;;;;;;;;;112436;212;42899;-48
2023/10/20 01:07:38;;;;;;;;;;;;;;;;;;112390;212;41600;-49
2023/10/20 01:10:17;;;;;;;;;;;;;;;;;;112488;212;38702;-47
2023/10/20 01:12:49;;;;;;;;;;;;;;;;;;112487;212;39590;-45
2023/10/20 01:15:27;;;;;;;;;;;;;;;;;;112342;212;175702;-46
2023/10/20 01:18:00;;;;;;;;;;;;;;;;;;112445;212;41726;-45
2023/10/20 01:20:36;;;;;;;;;;;;;;;;;;112311;212;175157;-45
2023/10/20 01:23:12;;;;;;;;;;;;;;;;;;112470;212;39758;-46
2023/10/20 01:25:47;;;;;;;;;;;;;;;;;;112492;212;42942;-45
2023/10/20 01:28:21;;;;;;;;;;;;;;;;;;112221;212;41943;-46
2023/10/20 01:30:58;;;;;;;;;;;;;;;;;;112472;212;38719;-45
2023/10/20 01:33:32;;;;;;;;;;;;;;;;;;112436;212;39574;-46
2023/10/20 01:36:06;;;;;;;;;;;;;;;;;;112286;212;175665;-50
2023/10/20 01:38:39;;;;;;;;;;;;;;;;;;112268;212;175660;-48
2023/10/20 01:41:14;;;;;;;;;;;;;;;;;;112445;212;38746;-45
2023/10/20 01:43:46;;;;;;;;;;;;;;;;;;112444;212;39898;-46
2023/10/20 01:46:22;;;;;;;;;;;;;;;;;;112452;212;42597;-46
2023/10/20 01:48:57;;;;;;;;;;;;;;;;;;112271;212;175689;-45
2023/10/20 01:51:34;;;;;;;;;;;;;;;;;;112451;212;38477;-47
2023/10/20 01:54:07;;;;;;;;;;;;;;;;;;112361;212;175672;-45
2023/10/20 01:56:40;;;;;;;;;;;;;;;;;;112434;212;43014;-45
2023/10/20 01:59:15;;;;;;;;;;;;;;;;;;112400;212;47264;-45
2023/10/20 02:01:49;;;;;;;;;;;;;;;;;;112432;212;38749;-45
2023/10/20 02:04:25;;;;;;;;;;;;;;;;;;112407;212;39612;-45
2023/10/20 02:07:03;;;;;;;;;;;;;;;;;;112436;212;44125;-45
2023/10/20 02:09:39;;;;;;;;;;;;;;;;;;112450;212;48023;-45
2023/10/20 02:12:15;;;;;;;;;;;;;;;;;;112418;212;38693;-45
2023/10/20 02:14:50;;;;;;;;;;;;;;;;;;112430;212;39671;-45
2023/10/20 02:17:25;;;;;;;;;;;;;;;;;;112358;212;42836;-45
2023/10/20 02:20:04;;;;;;;;;;;;;;;;;;112446;212;41817;-45
2023/10/20 02:22:41;;;;;;;;;;;;;;;;;;112461;212;39066;-45
2023/10/20 02:25:18;;;;;;;;;;;;;;;;;;112441;212;39578;-45
2023/10/20 02:27:55;;;;;;;;;;;;;;;;;;112382;212;43008;-45
2023/10/20 02:30:33;;;;;;;;;;;;;;;;;;112443;212;42397;-45
2023/10/20 02:33:06;;;;;;;;;;;;;;;;;;112434;212;38751;-45
2023/10/20 02:35:41;;;;;;;;;;;;;;;;;;112472;212;39648;-45
2023/10/20 02:38:17;;;;;;;;;;;;;;;;;;112387;212;43320;-44
2023/10/20 02:40:55;;;;;;;;;;;;;;;;;;112356;212;195072;-44
2023/10/20 02:43:32;;;;;;;;;;;;;;;;;;112452;212;38690;-44
2023/10/20 02:46:11;;;;;;;;;;;;;;;;;;112476;212;39462;-45
2023/10/20 02:48:49;;;;;;;;;;;;;;;;;;112382;212;42998;-45
2023/10/20 02:51:23;;;;;;;;;;;;;;;;;;112432;211;41675;-45
2023/10/20 02:53:56;;;;;;;;;;;;;;;;;;112472;211;38708;-45
2023/10/20 02:56:32;;;;;;;;;;;;;;;;;;112501;211;39656;-46
2023/10/20 02:59:09;;;;;;;;;;;;;;;;;;112467;211;43294;-45
2023/10/20 03:01:43;;;;;;;;;;;;;;;;;;112490;211;41820;-45
2023/10/20 03:04:19;;;;;;;;;;;;;;;;;;112462;211;38891;-45
2023/10/20 03:06:57;;;;;;;;;;;;;;;;;;112492;211;41049;-45
2023/10/20 03:09:30;;;;;;;;;;;;;;;;;;112437;211;42936;-45
2023/10/20 03:12:03;;;;;;;;;;;;;;;;;;112479;211;42794;-50
2023/10/20 03:14:39;;;;;;;;;;;;;;;;;;112440;211;38757;-48
2023/10/20 03:17:14;;;;;;;;;;;;;;;;;;112497;211;39807;-49
2023/10/20 03:19:50;;;;;;;;;;;;;;;;;;112444;211;43006;-47
2023/10/20 03:22:24;;;;;;;;;;;;;;;;;;112519;211;41866;-46
2023/10/20 03:24:58;;;;;;;;;;;;;;;;;;112482;211;38798;-47
2023/10/20 03:27:34;;;;;;;;;;;;;;;;;;112536;211;39667;-49
2023/10/20 03:30:11;;;;;;;;;;;;;;;;;;112494;211;42848;-47
2023/10/20 03:32:43;;;;;;;;;;;;;;;;;;112569;211;41381;-47
2023/10/20 03:35:17;;;;;;;;;;;;;;;;;;112535;211;38694;-46
2023/10/20 03:37:54;;;;;;;;;;;;;;;;;;112509;211;39818;-45
2023/10/20 03:40:30;;;;;;;;;;;;;;;;;;112469;211;43002;-46
2023/10/20 03:43:09;;;;;;;;;;;;;;;;;;112567;211;41503;-46
2023/10/20 03:45:48;;;;;;;;;;;;;;;;;;112522;211;38831;-47
2023/10/20 03:48:23;;;;;;;;;;;;;;;;;;111105;211;1752732;-46
2023/10/20 03:50:57;;;;;;;;;;;;;;;;;;112489;211;42863;-47
2023/10/20 03:53:39;;;;;;;;;;;;;;;;;;112593;211;41682;-47
2023/10/20 03:56:13;;;;;;;;;;;;;;;;;;112536;211;38868;-47
2023/10/20 03:58:46;;;;;;;;;;;;;;;;;;112556;211;39789;-47
2023/10/20 04:01:22;;;;;;;;;;;;;;;;;;112532;211;42694;-46
2023/10/20 04:03:57;;;;;;;;;;;;;;;;;;112558;211;42165;-47
2023/10/20 04:06:35;;;;;;;;;;;;;;;;;;112615;211;38872;-46
2023/10/20 04:09:09;;;;;;;;;;;;;;;;;;112573;211;40853;-46
2023/10/20 04:11:41;;;;;;;;;;;;;;;;;;112705;211;43723;-46
2023/10/20 04:14:18;;;;;;;;;;;;;;;;;;112586;211;41767;-46
2023/10/20 04:16:51;;;;;;;;;;;;;;;;;;112521;211;38849;-46
2023/10/20 04:19:25;;;;;;;;;;;;;;;;;;112580;211;39306;-46
2023/10/20 04:22:02;;;;;;;;;;;;;;;;;;112539;211;42807;-46
2023/10/20 04:24:34;;;;;;;;;;;;;;;;;;112525;211;41769;-45
2023/10/20 04:27:20;;;;;;;;;;;;;;;;;;112577;211;40184;-45
2023/10/20 04:50:37;;;;;;;;;;;;;;;;;;112527;212;38810;-46
2023/10/20 04:58:54;;;;;;;;;;;;;;;;;;112458;212;41648;-45
2023/10/20 05:01:39;;;;;;;;;;;;;;;;;;112405;212;38903;-45
2023/10/20 05:04:16;;;;;;;;;;;;;;;;;;112440;212;39329;-46
2023/10/20 05:06:57;;;;;;;;;;;;;;;;;;112513;212;43048;-45
2023/10/20 05:09:40;;;;;;;;;;;;;;;;;;112477;212;41618;-45
2023/10/20 05:12:13;;;;;;;;;;;;;;;;;;112451;212;38814;-45
2023/10/20 05:14:49;;;;;;;;;;;;;;;;;;112474;212;39733;-47
2023/10/20 05:17:21;;;;;;;;;;;;;;;;;;112248;212;44176;-45
2023/10/20 05:19:57;;;;;;;;;;;;;;;;;;112410;212;41634;-45
2023/10/20 05:22:36;;;;;;;;;;;;;;;;;;112426;212;38959;-45
2023/10/20 05:25:11;;;;;;;;;;;;;;;;;;112499;212;39555;-45
2023/10/20 05:27:43;;;;;;;;;;;;;;;;;;112461;212;42831;-45
2023/10/20 05:30:19;;;;;;;;;;;;;;;;;;112496;212;41884;-46
2023/10/20 05:32:52;;;;;;;;;;;;;;;;;;112519;212;38805;-45
2023/10/20 05:35:28;;;;;;;;;;;;;;;;;;112541;212;39595;-45
2023/10/20 05:38:03;;;;;;;;;;;;;;;;;;112577;212;42813;-46
2023/10/20 05:40:39;;;;;;;;;;;;;;;;;;112517;212;41885;-45
2023/10/20 05:43:15;;;;;;;;;;;;;;;;;;112466;212;38884;-45
2023/10/20 05:45:53;;;;;;;;;;;;;;;;;;112481;212;40985;-48
2023/10/20 05:48:27;;;;;;;;;;;;;;;;;;111776;212;896257;-46
2023/10/20 05:51:02;;;;;;;;;;;;;;;;;;112476;212;41367;-50
2023/10/20 05:53:34;;;;;;;;;;;;;;;;;;112465;212;38580;-45
2023/10/20 05:56:09;;;;;;;;;;;;;;;;;;112499;212;39850;-45
2023/10/20 05:58:44;;;;;;;;;;;;;;;;;;112498;212;42775;-44
2023/10/20 06:01:19;;;;;;;;;;;;;;;;;;112459;212;41663;-45
2023/10/20 06:03:53;;;;;;;;;;;;;;;;;;112435;212;38935;-45
2023/10/20 06:06:25;;;;;;;;;;;;;;;;;;112482;212;40632;-45
2023/10/20 06:08:59;;;;;;;;;;;;;;;;;;112477;212;44343;-45
2023/10/20 06:11:35;;;;;;;;;;;;;;;;;;112440;212;42891;-45
2023/10/20 06:14:12;;;;;;;;;;;;;;;;;;112436;212;40435;-45
2023/10/20 06:16:45;;;;;;;;;;;;;;;;;;112452;212;39788;-45
2023/10/20 06:19:18;;;;;;;;;;;;;;;;;;112431;212;44246;-45
2023/10/20 06:21:52;;;;;;;;;;;;;;;;;;112435;212;41640;-45
2023/10/20 06:24:29;;;;;;;;;;;;;;;;;;112403;212;38853;-48
2023/10/20 06:27:04;;;;;;;;;;;;;;;;;;112388;212;39585;-45
2023/10/20 06:29:46;;;;;;;;;;;;;;;;;;112506;212;42821;-46
2023/10/20 06:32:25;;;;;;;;;;;;;;;;;;112459;212;41715;-44
2023/10/20 06:35:00;;;;;;;;;;;;;;;;;;112535;212;44492;-46
2023/10/20 06:37:36;;;;;;;;;;;;;;;;;;112437;212;39319;-45
2023/10/20 06:40:15;;;;;;;;;;;;;;;;;;112431;212;43069;-45
2023/10/20 06:42:51;;;;;;;;;;;;;;;;;;112403;212;43043;-46
2023/10/20 06:45:26;;;;;;;;;;;;;;;;;;112430;212;44995;-45
2023/10/20 06:47:59;;;;;;;;;;;;;;;;;;112460;212;39621;-45
2023/10/20 06:50:37;;;;;;;;;;;;;;;;;;112439;212;42843;-45
2023/10/20 06:53:09;;;;;;;;;;;;;;;;;;112399;211;41642;-45
2023/10/20 06:55:46;;;;;;;;;;;;;;;;;;112429;211;45017;-45
2023/10/20 06:58:38;;;;;;;;;;;;;;;;;;112436;211;39708;-46
2023/10/20 07:01:11;;;;;;;;;;;;;;;;;;112445;211;42878;-45
2023/10/20 07:03:46;;;;;;;;;;;;;;;;;;112404;211;41690;-47
2023/10/20 07:06:20;;;;;;;;;;;;;;;;;;112497;211;39035;-46
2023/10/20 07:08:54;;;;;;;;;;;;;;;;;;112391;211;175667;-46
2023/10/20 07:11:26;;;;;;;;;;;;;;;;;;112462;211;43000;-46
2023/10/20 07:14:01;;;;;;;;;;;;;;;;;;112454;211;42761;-47
2023/10/20 07:16:37;;;;;;;;;;;;;;;;;;112496;211;38784;-49
2023/10/20 07:19:11;;;;;;;;;;;;;;;;;;112454;211;39813;-46
2023/10/20 07:21:50;;;;;;;;;;;;;;;;;;112437;211;42919;-46
2023/10/20 07:24:24;;;;;;;;;;;;;;;;;;112438;211;41376;-46
2023/10/20 07:26:58;;;;;;;;;;;;;;;;;;112494;211;38878;-47
2023/10/20 07:29:33;;;;;;;;;;;;;;;;;;111817;211;896162;-46
2023/10/20 07:32:10;;;;;;;;;;;;;;;;;;112483;211;42954;-46
2023/10/20 07:34:44;;;;;;;;;;;;;;;;;;112503;211;41694;-46
2023/10/20 07:37:25;;;;;;;;;;;;;;;;;;112492;211;39023;-46
2023/10/20 07:40:01;;;;;;;;;;;;;;;;;;112497;211;40089;-46
2023/10/20 07:42:36;;;;;;;;;;;;;;;;;;112405;211;175651;-46
2023/10/20 07:45:11;;;;;;;;;;;;;;;;;;112358;211;41795;-46
2023/10/20 07:47:44;;;;;;;;;;;;;;;;;;112588;211;38712;-41
2023/10/20 07:50:20;;;;;;;;;;;;;;;;;;112487;211;39934;-40
2023/10/20 07:52:55;;;;;;;;;;;;;;;;;;112498;211;43118;-40
2023/10/20 07:55:29;;;;;;;;;;;;;;;;;;112441;211;41783;-40
2023/10/20 07:58:04;;;;;;;;;;;;;;;;;;112549;211;38675;-38
2023/10/20 08:00:43;;;;;;;;;;;;;;;;;;112508;211;39728;-39
2023/10/20 08:03:21;;;;;;;;;;;;;;;;;;112442;211;43171;-37
2023/10/20 08:05:54;;;;;;;;;;;;;;;;;;112474;211;41955;-38
2023/10/20 08:08:33;;;;;;;;;;;;;;;;;;112544;211;38717;-40
2023/10/20 08:11:09;;;;;;;;;;;;;;;;;;112443;211;39988;-39
2023/10/20 08:13:50;;;;;;;;;;;;;;;;;;112550;211;42775;-40
2023/10/20 08:16:24;;;;;;;;;;;;;;;;;;112504;211;41664;-39
2023/10/20 08:19:00;;;;;;;;;;;;;;;;;;112560;211;38722;-40
2023/10/20 08:21:39;;;;;;;;;;;;;;;;;;112585;211;39316;-39
2023/10/20 08:24:13;;;;;;;;;;;;;;;;;;112414;211;175620;-42
2023/10/20 08:26:49;;;;;;;;;;;;;;;;;;112520;211;41955;-40
2023/10/20 08:29:25;;;;;;;;;;;;;;;;;;112589;211;39856;-40
2023/10/20 08:31:59;;;;;;;;;;;;;;;;;;112566;211;39783;-34
2023/10/20 08:34:35;;;;;;;;;;;;;;;;;;112600;211;42764;-40
2023/10/20 08:37:09;;;;;;;;;;;;;;;;;;112535;211;41835;-40
2023/10/20 08:39:44;;;;;;;;;;;;;;;;;;112607;211;38704;-36
2023/10/20 08:42:21;;;;;;;;;;;;;;;;;;112560;211;39602;-38
2023/10/20 08:44:57;;;;;;;;;;;;;;;;;;112572;211;42930;-37
2023/10/20 08:47:33;;;;;;;;;;;;;;;;;;112494;211;43058;-40
2023/10/20 08:50:10;;;;;;;;;;;;;;;;;;112497;212;38416;-37
2023/10/20 08:52:44;;;;;;;;;;;;;;;;;;112454;211;39616;-39
2023/10/20 08:55:25;;;;;;;;;;;;;;;;;;112405;212;43130;-36
2023/10/20 08:58:00;;;;;;;;;;;;;;;;;;112368;212;47380;-36
2023/10/20 09:00:35;;;;;;;;;;;;;;;;;;112429;212;39034;-36
2023/10/20 09:03:16;;;;;;;;;;;;;;;;;;112454;212;39788;-38
2023/10/20 09:05:51;;;;;;;;;;;;;;;;;;112423;212;42822;-38
2023/10/20 09:08:32;;;;;;;;;;;;;;;;;;112412;212;47972;-38
2023/10/20 09:11:13;;;;;;;;;;;;;;;;;;112463;212;38727;-39
2023/10/20 09:13:51;;;;;;;;;;;;;;;;;;112463;212;39636;-38
2023/10/20 09:16:26;;;;;;;;;;;;;;;;;;112413;212;43021;-39
2023/10/20 09:18:58;;;;;;;;;;;;;;;;;;112432;212;41654;-39
2023/10/20 09:21:37;;;;;;;;;;;;;;;;;;112440;212;38897;-37
2023/10/20 09:24:13;;;;;;;;;;;;;;;;;;112456;212;39955;-39
2023/10/20 09:26:49;;;;;;;;;;;;;;;;;;112377;212;42986;-37
2023/10/20 09:29:24;;;;;;;;;;;;;;;;;;112427;212;41746;-37
2023/10/20 09:31:59;;;;;;;;;;;;;;;;;;112416;212;38957;-37
2023/10/20 09:34:37;;;;;;;;;;;;;;;;;;112433;212;39671;-36
2023/10/20 09:37:12;;;;;;;;;;;;;;;;;;112394;212;42972;-39
2023/10/20 09:39:52;;;;;;;;;;;;;;;;;;112433;212;41430;-37
2023/10/20 09:42:29;;;;;;;;;;;;;;;;;;112435;212;38871;-38
2023/10/20 09:45:11;;;;;;;;;;;;;;;;;;112424;212;39524;-42
2023/10/20 09:47:45;;;;;;;;;;;;;;;;;;112427;212;42820;-41
2023/10/20 09:50:23;;;;;;;;;;;;;;;;;;112428;212;41859;-41
2023/10/20 09:52:58;;;;;;;;;;;;;;;;;;112286;212;175630;-40
2023/10/20 09:55:34;;;;;;;;;;;;;;;;;;112444;212;39651;-40
2023/10/20 09:58:13;;;;;;;;;;;;;;;;;;112402;212;42909;-41
2023/10/20 10:00:50;;;;;;;;;;;;;;;;;;112434;212;42388;-40
2023/10/20 10:03:37;;;;;;;;;;;;;;;;;;112386;212;38837;-40
2023/10/20 10:06:19;;;;;;;;;;;;;;;;;;112425;212;39695;-40
2023/10/20 10:08:57;;;;;;;;;;;;;;;;;;112353;212;44138;-40
2023/10/20 10:11:34;;;;;;;;;;;;;;;;;;112378;212;41604;-40
2023/10/20 10:14:08;;;;;;;;;;;;;;;;;;112441;212;38966;-40
2023/10/20 10:16:51;;;;;;;;;;;;;;;;;;112441;212;40773;-41
2023/10/20 10:19:31;;;;;;;;;;;;;;;;;;112348;212;43026;-38
2023/10/20 10:22:05;;;;;;;;;;;;;;;;;;112441;212;41780;-37
2023/10/20 10:24:48;;;;;;;;;;;;;;;;;;112434;212;39139;-37
2023/10/20 10:27:26;;;;;;;;;;;;;;;;;;112460;212;39774;-36
2023/10/20 10:30:05;;;;;;;;;;;;;;;;;;111730;212;896841;-38
2023/10/20 10:32:47;;;;;;;;;;;;;;;;;;112444;212;42109;-36
2023/10/20 10:35:23;;;;;;;;;;;;;;;;;;112510;212;38718;-38
2023/10/20 10:37:55;;;;;;;;;;;;;;;;;;112438;212;40012;-37
2023/10/20 10:40:34;;;;;;;;;;;;;;;;;;112440;212;48955;-38
2023/10/20 10:43:07;;;;;;;;;;;;;;;;;;112400;212;41808;-36
2023/10/20 10:45:43;;;;;;;;;;;;;;;;;;112405;212;40006;-38
2023/10/20 10:48:17;;;;;;;;;;;;;;;;;;112384;212;39778;-38
2023/10/20 10:50:52;;;;;;;;;;;;;;;;;;112427;212;42828;-37
2023/10/20 10:53:28;;;;;;;;;;;;;;;;;;112461;212;41767;-43
2023/10/20 10:56:04;;;;;;;;;;;;;;;;;;112459;212;39981;-42
2023/10/20 10:58:40;;;;;;;;;;;;;;;;;;112391;212;39787;-39
2023/10/20 11:01:19;;;;;;;;;;;;;;;;;;112425;212;42922;-39
2023/10/20 11:03:55;;;;;;;;;;;;;;;;;;112433;211;42898;-40
2023/10/20 11:06:32;;;;;;;;;;;;;;;;;;112464;211;38723;-36
2023/10/20 11:09:10;;;;;;;;;;;;;;;;;;112428;211;40869;-39
2023/10/20 11:11:45;;;;;;;;;;;;;;;;;;112546;211;43259;-40
2023/10/20 11:14:21;;;;;;;;;;;;;;;;;;112415;211;41803;-37
2023/10/20 11:16:55;;;;;;;;;;;;;;;;;;112410;211;40066;-37
2023/10/20 11:19:32;;;;;;;;;;;;;;;;;;112413;211;40994;-40
2023/10/20 11:22:13;;;;;;;;;;;;;;;;;;112541;211;43013;-41
2023/10/20 11:24:53;;;;;;;;;;;;;;;;;;112465;211;41931;-37
2023/10/20 11:27:26;;;;;;;;;;;;;;;;;;112505;211;38736;-38
2023/10/20 11:30:01;;;;;;;;;;;;;;;;;;112427;211;39608;-39
2023/10/20 11:32:34;;;;;;;;;;;;;;;;;;112472;211;42968;-41
2023/10/20 11:35:13;;;;;;;;;;;;;;;;;;112423;211;41625;-41
2023/10/20 11:37:46;;;;;;;;;;;;;;;;;;112455;211;39905;-40
2023/10/20 11:40:21;;;;;;;;;;;;;;;;;;112370;211;175597;-40
2023/10/20 11:42:54;;;;;;;;;;;;;;;;;;112508;211;42817;-42
2023/10/20 11:45:27;;;;;;;;;;;;;;;;;;112495;211;41483;-41
2023/10/20 11:48:02;;;;;;;;;;;;;;;;;;111863;211;642770;-39
2023/10/20 11:50:40;;;;;;;;;;;;;;;;;;112502;211;39598;-43
2023/10/20 11:53:13;;;;;;;;;;;;;;;;;;112555;211;42585;-39
2023/10/20 11:55:49;;;;;;;;;;;;;;;;;;112616;211;42839;-43
2023/10/20 11:58:21;;;;;;;;;;;;;;;;;;112511;211;38714;-41
2023/10/20 12:00:59;;;;;;;;;;;;;;;;;;112528;211;39692;-41
2023/10/20 12:03:34;;;;;;;;;;;;;;;;;;112555;211;42818;-40
2023/10/20 12:06:10;;;;;;;;;;;;;;;;;;112604;211;41561;-40
2023/10/20 12:08:51;;;;;;;;;;;;;;;;;;112603;211;38732;-37
2023/10/20 12:11:25;;;;;;;;;;;;;;;;;;112469;211;39786;-40
2023/10/20 12:14:01;;;;;;;;;;;;;;;;;;112590;211;42855;-38
2023/10/20 12:16:34;;;;;;;;;;;;;;;;;;112595;211;41888;-41
2023/10/20 12:19:11;;;;;;;;;;;;;;;;;;112497;211;38640;-40
2023/10/20 12:21:42;;;;;;;;;;;;;;;;;;112588;211;39652;-41
2023/10/20 12:24:14;;;;;;;;;;;;;;;;;;112651;211;43090;-37
2023/10/20 12:26:46;;;;;;;;;;;;;;;;;;112632;211;41760;-39
2023/10/20 12:29:26;;;;;;;;;;;;;;;;;;112573;211;38918;-38
2023/10/20 12:31:58;;;;;;;;;;;;;;;;;;112587;211;39861;-39
2023/10/20 12:34:34;;;;;;;;;;;;;;;;;;112607;211;42778;-39
2023/10/20 12:37:06;;;;;;;;;;;;;;;;;;112476;211;41655;-43
2023/10/20 12:39:43;;;;;;;;;;;;;;;;;;112532;211;38760;-38
2023/10/20 12:42:18;;;;;;;;;;;;;;;;;;112514;211;39654;-35
2023/10/20 12:44:53;;;;;;;;;;;;;;;;;;112559;211;42930;-38
2023/10/20 12:47:26;;;;;;;;;;;;;;;;;;112593;211;42889;-39
2023/10/20 12:50:00;;;;;;;;;;;;;;;;;;112557;212;39876;-40
2023/10/20 12:52:38;;;;;;;;;;;;;;;;;;112464;212;39853;-41
2023/10/20 12:55:14;;;;;;;;;;;;;;;;;;112413;212;42856;-40
2023/10/20 12:57:49;;;;;;;;;;;;;;;;;;112399;212;41675;-40
2023/10/20 13:00:25;;;;;;;;;;;;;;;;;;112463;212;40040;-40
2023/10/20 13:02:59;;;;;;;;;;;;;;;;;;112380;212;39601;-40
2023/10/20 13:05:36;;;;;;;;;;;;;;;;;;112441;212;42824;-40
2023/10/20 13:08:16;;;;;;;;;;;;;;;;;;112456;212;41952;-40
2023/10/20 13:10:50;;;;;;;;;;;;;;;;;;112424;212;38708;-40
2023/10/20 13:13:24;;;;;;;;;;;;;;;;;;112366;212;45413;-41
2023/10/20 13:16:02;;;;;;;;;;;;;;;;;;112386;212;44102;-40
2023/10/20 13:18:36;;;;;;;;;;;;;;;;;;112431;212;41673;-42
2023/10/20 13:21:10;;;;;;;;;;;;;;;;;;112427;212;38835;-41
2023/10/20 13:23:44;;;;;;;;;;;;;;;;;;112357;212;45369;-42
2023/10/20 13:26:20;;;;;;;;;;;;;;;;;;112440;212;43175;-41
2023/10/20 13:28:55;;;;;;;;;;;;;;;;;;112423;212;41660;-40
2023/10/20 13:31:28;;;;;;;;;;;;;;;;;;112476;212;38572;-41
2023/10/20 13:34:05;;;;;;;;;;;;;;;;;;112370;212;46473;-41
2023/10/20 13:36:41;;;;;;;;;;;;;;;;;;112402;212;44011;-40
2023/10/20 13:39:22;;;;;;;;;;;;;;;;;;112461;212;41620;-40
2023/10/20 13:42:04;;;;;;;;;;;;;;;;;;112416;212;38822;-41
2023/10/20 13:44:41;;;;;;;;;;;;;;;;;;112416;212;45758;-41
2023/10/20 13:47:20;;;;;;;;;;;;;;;;;;112489;212;42822;-40
2023/10/20 13:49:53;;;;;;;;;;;;;;;;;;112469;212;41807;-40
2023/10/20 13:52:30;;;;;;;;;;;;;;;;;;112431;212;38652;-40
2023/10/20 13:55:05;;;;;;;;;;;;;;;;;;112530;212;45892;-40
2023/10/20 13:57:37;;;;;;;;;;;;;;;;;;112445;212;43964;-39
2023/10/20 14:00:14;;;;;;;;;;;;;;;;;;112427;212;41687;-40
2023/10/20 14:02:54;;;;;;;;;;;;;;;;;;112401;212;38608;-41
2023/10/20 14:05:29;;;;;;;;;;;;;;;;;;112446;212;45886;-40
2023/10/20 14:08:07;;;;;;;;;;;;;;;;;;112425;212;42773;-39
2023/10/20 14:10:44;;;;;;;;;;;;;;;;;;112439;212;42439;-40
2023/10/20 14:13:20;;;;;;;;;;;;;;;;;;112414;212;38688;-42
2023/10/20 14:15:57;;;;;;;;;;;;;;;;;;112448;212;40986;-41
2023/10/20 14:18:32;;;;;;;;;;;;;;;;;;112436;212;42798;-40
2023/10/20 14:21:04;;;;;;;;;;;;;;;;;;112393;212;41629;-41
2023/10/20 14:23:38;;;;;;;;;;;;;;;;;;112381;212;38929;-41
2023/10/20 14:26:12;;;;;;;;;;;;;;;;;;112454;212;39648;-41
2023/10/20 14:28:50;;;;;;;;;;;;;;;;;;112467;212;42567;-41
2023/10/20 14:31:23;;;;;;;;;;;;;;;;;;112442;212;42147;-41
2023/10/20 14:33:58;;;;;;;;;;;;;;;;;;112433;212;38860;-41
2023/10/20 14:36:32;;;;;;;;;;;;;;;;;;112499;212;39649;-41
2023/10/20 14:39:06;;;;;;;;;;;;;;;;;;112530;212;44158;-41
2023/10/20 14:41:38;;;;;;;;;;;;;;;;;;112532;212;41762;-41
2023/10/20 14:44:10;;;;;;;;;;;;;;;;;;112426;212;38949;-42
2023/10/20 14:46:44;;;;;;;;;;;;;;;;;;112436;212;39792;-43
2023/10/20 14:49:21;;;;;;;;;;;;;;;;;;112425;212;43006;-40
2023/10/20 14:51:53;;;;;;;;;;;;;;;;;;112455;212;43086;-40
2023/10/20 14:54:27;;;;;;;;;;;;;;;;;;112377;212;38793;-42
2023/10/20 14:57:00;;;;;;;;;;;;;;;;;;112408;211;39618;-40
2023/10/20 14:59:38;;;;;;;;;;;;;;;;;;112446;211;43136;-41
2023/10/20 15:02:12;;;;;;;;;;;;;;;;;;112460;211;41694;-40
2023/10/20 15:04:52;;;;;;;;;;;;;;;;;;112376;211;38694;-41
2023/10/20 15:07:28;;;;;;;;;;;;;;;;;;112466;211;39642;-42
2023/10/20 15:10:04;;;;;;;;;;;;;;;;;;112456;211;42770;-39
2023/10/20 15:12:40;;;;;;;;;;;;;;;;;;112423;212;41692;-39
2023/10/20 15:15:16;;;;;;;;;;;;;;;;;;112365;212;39986;-36
2023/10/20 15:17:51;;;;;;;;;;;;;;;;;;112322;211;192945;-41
2023/10/20 15:20:24;;;;;;;;;;;;;;;;;;112446;211;44272;-38
2023/10/20 15:23:05;;;;;;;;;;;;;;;;;;112489;211;41609;-39
2023/10/20 15:25:51;;;;;;;;;;;;;;;;;;112474;211;39922;-38
2023/10/20 15:28:26;;;;;;;;;;;;;;;;;;112508;211;39568;-41
2023/10/20 15:31:03;;;;;;;;;;;;;;;;;;112486;211;42855;-41
2023/10/20 15:33:36;;;;;;;;;;;;;;;;;;112469;211;41708;-41
2023/10/20 15:36:10;;;;;;;;;;;;;;;;;;112435;211;38534;-41
2023/10/20 15:38:42;;;;;;;;;;;;;;;;;;112458;211;39818;-38
2023/10/20 15:41:17;;;;;;;;;;;;;;;;;;112480;211;42875;-39
2023/10/20 15:43:53;;;;;;;;;;;;;;;;;;112513;211;41703;-42
2023/10/20 15:46:29;;;;;;;;;;;;;;;;;;112470;211;39224;-41
2023/10/20 15:49:08;;;;;;;;;;;;;;;;;;112398;212;39289;-41
2023/10/20 15:51:47;;;;;;;;;;;;;;;;;;112472;211;42532;-41
2023/10/20 15:54:23;;;;;;;;;;;;;;;;;;112494;211;41831;-41
2023/10/20 15:56:59;;;;;;;;;;;;;;;;;;112481;211;38419;-41
2023/10/20 15:59:31;;;;;;;;;;;;;;;;;;112524;211;40933;-41
2023/10/20 16:02:09;;;;;;;;;;;;;;;;;;112519;211;42808;-41
2023/10/20 16:04:42;;;;;;;;;;;;;;;;;;112376;211;175603;-41
2023/10/20 16:07:15;;;;;;;;;;;;;;;;;;112463;211;38897;-41
2023/10/20 16:09:50;;;;;;;;;;;;;;;;;;112507;211;39605;-42
2023/10/20 16:12:23;;;;;;;;;;;;;;;;;;112569;211;42561;-40
2023/10/20 16:14:58;;;;;;;;;;;;;;;;;;112524;211;41592;-41
2023/10/20 16:17:33;;;;;;;;;;;;;;;;;;112506;211;38715;-41
2023/10/20 16:20:08;;;;;;;;;;;;;;;;;;112558;211;39707;-40
2023/10/20 16:22:40;;;;;;;;;;;;;;;;;;112522;211;43123;-41
2023/10/20 16:25:15;;;;;;;;;;;;;;;;;;112565;211;41729;-41
2023/10/20 16:27:51;;;;;;;;;;;;;;;;;;112523;211;41076;-42
2023/10/20 16:30:24;;;;;;;;;;;;;;;;;;112570;211;40887;-41
2023/10/20 16:32:56;;;;;;;;;;;;;;;;;;112618;211;43939;-42
2023/10/20 16:35:32;;;;;;;;;;;;;;;;;;112543;211;41664;-42
2023/10/20 16:38:06;;;;;;;;;;;;;;;;;;112592;211;38709;-41
2023/10/20 16:40:42;;;;;;;;;;;;;;;;;;112382;211;175578;-41
2023/10/20 16:43:15;;;;;;;;;;;;;;;;;;112642;211;42934;-41
2023/10/20 16:45:52;;;;;;;;;;;;;;;;;;112615;211;42096;-41
2023/10/20 16:48:29;;;;;;;;;;;;;;;;;;112533;211;38726;-41
2023/10/20 16:51:06;;;;;;;;;;;;;;;;;;112476;211;39768;-41
2023/10/20 16:53:41;;;;;;;;;;;;;;;;;;112515;211;42826;-41
2023/10/20 16:56:15;;;;;;;;;;;;;;;;;;112521;212;41760;-41
2023/10/20 16:58:54;;;;;;;;;;;;;;;;;;112465;212;44809;-44
2023/10/20 17:01:29;;;;;;;;;;;;;;;;;;112487;212;40292;-39
2023/10/20 17:04:03;;;;;;;;;;;;;;;;;;112464;212;43184;-43
2023/10/20 17:06:39;;;;;;;;;;;;;;;;;;112415;212;41792;-42
2023/10/20 17:09:15;;;;;;;;;;;;;;;;;;112387;212;45057;-39
2023/10/20 17:11:50;;;;;;;;;;;;;;;;;;112389;212;39598;-41
2023/10/20 17:14:25;;;;;;;;;;;;;;;;;;112386;212;42772;-40
2023/10/20 17:17:03;;;;;;;;;;;;;;;;;;112339;212;41569;-39
2023/10/20 17:19:43;;;;;;;;;;;;;;;;;;112296;212;45090;-43
2023/10/20 17:22:17;;;;;;;;;;;;;;;;;;112358;212;39585;-42
2023/10/20 17:24:57;;;;;;;;;;;;;;;;;;112387;212;42766;-42
2023/10/20 17:27:34;;;;;;;;;;;;;;;;;;112359;212;41688;-42
2023/10/20 17:30:13;;;;;;;;;;;;;;;;;;112345;212;38803;-42
2023/10/20 17:32:52;;;;;;;;;;;;;;;;;;112479;212;39765;-42
2023/10/20 17:35:24;;;;;;;;;;;;;;;;;;111778;212;895773;-40
2023/10/20 17:37:57;;;;;;;;;;;;;;;;;;112409;212;42236;-40
2023/10/20 17:40:35;;;;;;;;;;;;;;;;;;112486;212;38809;-40
2023/10/20 17:43:09;;;;;;;;;;;;;;;;;;112478;212;39552;-41
2023/10/20 17:45:43;;;;;;;;;;;;;;;;;;112372;212;42986;-40
2023/10/20 17:48:18;;;;;;;;;;;;;;;;;;112425;212;41858;-40
2023/10/20 17:50:54;;;;;;;;;;;;;;;;;;112513;212;39031;-40
2023/10/20 17:53:32;;;;;;;;;;;;;;;;;;112476;212;39609;-40
2023/10/20 17:56:07;;;;;;;;;;;;;;;;;;112473;212;43188;-40
2023/10/20 17:58:42;;;;;;;;;;;;;;;;;;112455;212;42045;-40
2023/10/20 18:01:15;;;;;;;;;;;;;;;;;;112466;212;38670;-40
2023/10/20 18:03:52;;;;;;;;;;;;;;;;;;112476;212;39571;-40
2023/10/20 18:06:27;;;;;;;;;;;;;;;;;;112453;212;43032;-41